Phoenix Cross — MRBQ7 — position and weather

sailwx.info

Track history (hours):
 
Tides and Currents Weather Stations Pressure Air Temp Water Temp Dewpoint Dewpoint Depression Visibility Wind Speed Wind Dir Waves Ship Positions

Phoenix Cross

Last reported at 2015-Mar-03 15:18 UTC. Time now 2015-Mar-04 20:22 UTC.
Position N 54°35' W 001°13'.

Length 30 m; draft 5 m.

Type: Ship. MMSI: 235067452.

Date/timePositionNaut miles runAvg speedWind from/ knotsBaromVisibWave heightAir tempDewpointWater temp
2015-Mar-03 15:18N 54°35' W 001°13'0 0.0
2015-Mar-03 14:32N 54°35' W 001°13'2 2.4
2015-Mar-03 13:33N 54°36' W 001°09'1 1.1
2015-Mar-03 12:32N 54°37' W 001°09'0 0.2
2015-Mar-03 11:34N 54°37' W 001°09'2 1.8
2015-Mar-03 10:33N 54°36' W 001°10'2 1.6
2015-Mar-03 09:33N 54°35' W 001°13'0 0.0
2015-Mar-03 08:32N 54°35' W 001°13'0 0.0
2015-Mar-03 07:33N 54°35' W 001°13'0 0.0
2015-Mar-02 17:25N 54°35' W 001°13'0 0.0
2015-Mar-02 16:31N 54°35' W 001°13'3 3.2
2015-Mar-02 15:32N 54°38' W 001°10'1 1.5
2015-Mar-02 14:32N 54°39' W 001°09'0 0.2
2015-Mar-02 13:33N 54°39' W 001°08'1 0.7
2015-Mar-02 12:33N 54°38' W 001°09'3 2.9
2015-Mar-02 11:32N 54°36' W 001°11'1 1.3
2015-Mar-02 10:32N 54°35' W 001°13'0 0.0
2015-Mar-02 09:32N 54°35' W 001°13'0 0.0
2015-Mar-02 08:30N 54°35' W 001°13'0 0.0
2015-Mar-02 07:30N 54°35' W 001°13'1 1.3
2015-Mar-02 06:26N 54°36' W 001°11'1 0.0
2015-Feb-28 13:32N 54°35' W 001°12'0 0.0
2015-Feb-28 12:32N 54°35' W 001°12'3 2.7
2015-Feb-28 11:33N 54°38' W 001°10'2 2.1
2015-Feb-28 10:33N 54°36' W 001°11'1 1.3
2015-Feb-28 09:33N 54°35' W 001°13'0 0.0
2015-Feb-28 08:32N 54°35' W 001°13'0 0.0
2015-Feb-27 16:33N 54°35' W 001°13'0 0.0
2015-Feb-27 15:30N 54°35' W 001°13'0 0.0
2015-Feb-27 14:33N 54°35' W 001°13'0 0.0
2015-Feb-27 13:34N 54°35' W 001°13'0 0.0
2015-Feb-27 12:33N 54°35' W 001°13'0 0.0
2015-Feb-27 11:32N 54°35' W 001°13'0 0.0
2015-Feb-27 10:33N 54°35' W 001°13'0 0.0
2015-Feb-27 09:33N 54°35' W 001°13'0 0.0
2015-Feb-27 08:32N 54°35' W 001°13'0 0.0
2015-Feb-27 07:32N 54°35' W 001°13'0 0.0
2015-Feb-26 17:18N 54°35' W 001°13'0 0.0
2015-Feb-26 16:33N 54°35' W 001°13'2 2.4
2015-Feb-26 15:34N 54°36' W 001°09'3 2.9
2015-Feb-26 14:33N 54°39' W 001°09'3 3.1
2015-Feb-26 13:33N 54°41' W 001°04'5 5.4
2015-Feb-26 12:33N 54°36' W 001°10'2 2.3
2015-Feb-26 11:33N 54°35' W 001°13'0 0.0
2015-Feb-26 10:33N 54°35' W 001°13'0 0.0
2015-Feb-26 09:32N 54°35' W 001°13'2 1.6
2015-Feb-26 08:32N 54°36' W 001°11'3 2.8
2015-Feb-26 07:32N 54°38' W 001°09'2 1.9
2015-Feb-26 06:33N 54°40' W 001°07'6 0.5
2015-Feb-25 17:26N 54°35' W 001°13'0 0.0
2015-Feb-25 16:34N 54°35' W 001°13'0 0.0
2015-Feb-25 15:33N 54°35' W 001°13'0 0.0
2015-Feb-25 14:29N 54°35' W 001°13'0 0.0
2015-Feb-25 13:34N 54°35' W 001°13'0 0.0
2015-Feb-25 12:33N 54°35' W 001°13'0 0.0
2015-Feb-25 11:32N 54°35' W 001°13'0 0.0
2015-Feb-25 10:32N 54°35' W 001°13'0 0.0
2015-Feb-25 09:32N 54°35' W 001°13'0 0.0
2015-Feb-25 08:32N 54°35' W 001°13'6 5.7
2015-Feb-25 07:32N 54°40' W 001°09'0 0.2
2015-Feb-25 06:33N 54°40' W 001°08'6 0.4
2015-Feb-24 17:11N 54°35' W 001°13'0 0.0
2015-Feb-24 16:23N 54°35' W 001°13'0 0.0
2015-Feb-24 15:32N 54°35' W 001°13'0 0.0
2015-Feb-24 14:28N 54°35' W 001°13'0 0.0
2015-Feb-24 13:32N 54°35' W 001°13'0 0.0
2015-Feb-24 12:33N 54°35' W 001°13'0 0.0
2015-Feb-24 11:34N 54°35' W 001°13'0 0.0
2015-Feb-24 10:33N 54°35' W 001°13'0 0.0
2015-Feb-24 09:33N 54°35' W 001°13'4 3.9
2015-Feb-24 08:34N 54°38' W 001°09'1 0.6
2015-Feb-24 07:30N 54°37' W 001°09'1 1.3
2015-Feb-24 06:26N 54°39' W 001°08'5 0.3
2015-Feb-23 12:12N 54°35' W 001°13'0 0.0
2015-Feb-23 11:34N 54°35' W 001°13'0 0.0
2015-Feb-23 10:31N 54°35' W 001°13'0 0.0
2015-Feb-23 09:33N 54°35' W 001°13'0 0.0
2015-Feb-23 08:33N 54°35' W 001°13'0 0.0
2015-Feb-23 07:33N 54°35' W 001°13'0 0.0
2015-Feb-23 06:34N 54°35' W 001°13'4 0.3
2015-Feb-22 19:20N 54°38' W 001°09'4 0.9
2015-Feb-22 15:32N 54°35' W 001°13'0 0.0
2015-Feb-22 14:33N 54°35' W 001°13'0 0.0
2015-Feb-22 13:33N 54°35' W 001°13'0 0.0
2015-Feb-22 12:33N 54°35' W 001°13'0 0.0
2015-Feb-22 11:31N 54°35' W 001°13'0 0.0
2015-Feb-22 10:33N 54°35' W 001°13'0 0.0
2015-Feb-22 09:32N 54°35' W 001°13'0 0.0
2015-Feb-22 08:34N 54°35' W 001°13'0 0.0
2015-Feb-22 07:29N 54°35' W 001°13'0 0.0
2015-Feb-22 06:29N 54°35' W 001°13'0 0.0
2015-Feb-21 15:33N 54°35' W 001°13'  
Track history (hours):
 
Tides and Currents Weather Stations Pressure Air Temp Water Temp Dewpoint Dewpoint Depression Visibility Wind Speed Wind Dir Waves Ship Positions

Phoenix Cross

Last reported at 2015-Mar-03 15:18 UTC. Time now 2015-Mar-04 20:22 UTC.
Position N 54°35' W 001°13'.

Length 30 m; draft 5 m.

Type: Ship. MMSI: 235067452.

Date/timePositionNaut miles runAvg speedWind from/ knotsBaromVisibWave heightAir tempDewpointWater temp
2015-Mar-03 15:18N 54°35' W 001°13'0 0.0
2015-Mar-03 14:32N 54°35' W 001°13'2 2.4
2015-Mar-03 13:33N 54°36' W 001°09'1 1.1
2015-Mar-03 12:32N 54°37' W 001°09'0 0.2
2015-Mar-03 11:34N 54°37' W 001°09'2 1.8
2015-Mar-03 10:33N 54°36' W 001°10'2 1.6
2015-Mar-03 09:33N 54°35' W 001°13'0 0.0
2015-Mar-03 08:32N 54°35' W 001°13'0 0.0
2015-Mar-03 07:33N 54°35' W 001°13'0 0.0
2015-Mar-02 17:25N 54°35' W 001°13'0 0.0
2015-Mar-02 16:31N 54°35' W 001°13'3 3.2
2015-Mar-02 15:32N 54°38' W 001°10'1 1.5
2015-Mar-02 14:32N 54°39' W 001°09'0 0.2
2015-Mar-02 13:33N 54°39' W 001°08'1 0.7
2015-Mar-02 12:33N 54°38' W 001°09'3 2.9
2015-Mar-02 11:32N 54°36' W 001°11'1 1.3
2015-Mar-02 10:32N 54°35' W 001°13'0 0.0
2015-Mar-02 09:32N 54°35' W 001°13'0 0.0
2015-Mar-02 08:30N 54°35' W 001°13'0 0.0
2015-Mar-02 07:30N 54°35' W 001°13'1 1.3
2015-Mar-02 06:26N 54°36' W 001°11'1 0.0
2015-Feb-28 13:32N 54°35' W 001°12'0 0.0
2015-Feb-28 12:32N 54°35' W 001°12'3 2.7
2015-Feb-28 11:33N 54°38' W 001°10'2 2.1
2015-Feb-28 10:33N 54°36' W 001°11'1 1.3
2015-Feb-28 09:33N 54°35' W 001°13'0 0.0
2015-Feb-28 08:32N 54°35' W 001°13'0 0.0
2015-Feb-27 16:33N 54°35' W 001°13'0 0.0
2015-Feb-27 15:30N 54°35' W 001°13'0 0.0
2015-Feb-27 14:33N 54°35' W 001°13'0 0.0
2015-Feb-27 13:34N 54°35' W 001°13'0 0.0
2015-Feb-27 12:33N 54°35' W 001°13'0 0.0
2015-Feb-27 11:32N 54°35' W 001°13'0 0.0
2015-Feb-27 10:33N 54°35' W 001°13'0 0.0
2015-Feb-27 09:33N 54°35' W 001°13'0 0.0
2015-Feb-27 08:32N 54°35' W 001°13'0 0.0
2015-Feb-27 07:32N 54°35' W 001°13'0 0.0
2015-Feb-26 17:18N 54°35' W 001°13'0 0.0
2015-Feb-26 16:33N 54°35' W 001°13'2 2.4
2015-Feb-26 15:34N 54°36' W 001°09'3 2.9
2015-Feb-26 14:33N 54°39' W 001°09'3 3.1
2015-Feb-26 13:33N 54°41' W 001°04'5 5.4
2015-Feb-26 12:33N 54°36' W 001°10'2 2.3
2015-Feb-26 11:33N 54°35' W 001°13'0 0.0
2015-Feb-26 10:33N 54°35' W 001°13'0 0.0
2015-Feb-26 09:32N 54°35' W 001°13'2 1.6
2015-Feb-26 08:32N 54°36' W 001°11'3 2.8
2015-Feb-26 07:32N 54°38' W 001°09'2 1.9
2015-Feb-26 06:33N 54°40' W 001°07'6 0.5
2015-Feb-25 17:26N 54°35' W 001°13'0 0.0
2015-Feb-25 16:34N 54°35' W 001°13'0 0.0
2015-Feb-25 15:33N 54°35' W 001°13'0 0.0
2015-Feb-25 14:29N 54°35' W 001°13'0 0.0
2015-Feb-25 13:34N 54°35' W 001°13'0 0.0
2015-Feb-25 12:33N 54°35' W 001°13'0 0.0
2015-Feb-25 11:32N 54°35' W 001°13'0 0.0
2015-Feb-25 10:32N 54°35' W 001°13'0 0.0
2015-Feb-25 09:32N 54°35' W 001°13'0 0.0
2015-Feb-25 08:32N 54°35' W 001°13'6 5.7
2015-Feb-25 07:32N 54°40' W 001°09'0 0.2
2015-Feb-25 06:33N 54°40' W 001°08'6 0.4
2015-Feb-24 17:11N 54°35' W 001°13'0 0.0
2015-Feb-24 16:23N 54°35' W 001°13'0 0.0
2015-Feb-24 15:32N 54°35' W 001°13'0 0.0
2015-Feb-24 14:28N 54°35' W 001°13'0 0.0
2015-Feb-24 13:32N 54°35' W 001°13'0 0.0
2015-Feb-24 12:33N 54°35' W 001°13'0 0.0
2015-Feb-24 11:34N 54°35' W 001°13'0 0.0
2015-Feb-24 10:33N 54°35' W 001°13'0 0.0
2015-Feb-24 09:33N 54°35' W 001°13'4 3.9
2015-Feb-24 08:34N 54°38' W 001°09'1 0.6
2015-Feb-24 07:30N 54°37' W 001°09'1 1.3
2015-Feb-24 06:26N 54°39' W 001°08'5 0.3
2015-Feb-23 12:12N 54°35' W 001°13'0 0.0
2015-Feb-23 11:34N 54°35' W 001°13'0 0.0
2015-Feb-23 10:31N 54°35' W 001°13'0 0.0
2015-Feb-23 09:33N 54°35' W 001°13'0 0.0
2015-Feb-23 08:33N 54°35' W 001°13'0 0.0
2015-Feb-23 07:33N 54°35' W 001°13'0 0.0
2015-Feb-23 06:34N 54°35' W 001°13'4 0.3
2015-Feb-22 19:20N 54°38' W 001°09'4 0.9
2015-Feb-22 15:32N 54°35' W 001°13'0 0.0
2015-Feb-22 14:33N 54°35' W 001°13'0 0.0
2015-Feb-22 13:33N 54°35' W 001°13'0 0.0
2015-Feb-22 12:33N 54°35' W 001°13'0 0.0
2015-Feb-22 11:31N 54°35' W 001°13'0 0.0
2015-Feb-22 10:33N 54°35' W 001°13'0 0.0
2015-Feb-22 09:32N 54°35' W 001°13'0 0.0
2015-Feb-22 08:34N 54°35' W 001°13'0 0.0
2015-Feb-22 07:29N 54°35' W 001°13'0 0.0
2015-Feb-22 06:29N 54°35' W 001°13'0 0.0
2015-Feb-21 15:33N 54°35' W 001°13'  

Dump ship's entire track history